createdAt,value
2023-04-10T00:02:05.685Z,101020.00
2023-04-10T00:04:33.824Z,101016.66
2023-04-10T00:07:03.216Z,101012.59
2023-04-10T00:09:32.030Z,101014.28
2023-04-10T00:12:00.807Z,101011.63
2023-04-10T00:14:28.785Z,101009.72
2023-04-10T00:16:56.761Z,100988.78
2023-04-10T00:19:24.753Z,101004.72
2023-04-10T00:21:52.673Z,101002.97
2023-04-10T00:24:22.029Z,100994.28
2023-04-10T00:26:50.024Z,100989.38
2023-04-10T00:29:18.061Z,100997.97
2023-04-10T00:31:46.064Z,100992.75
2023-04-10T00:34:14.179Z,100984.06
2023-04-10T00:36:42.179Z,100976.75
2023-04-10T00:39:10.247Z,100987.50
2023-04-10T00:41:39.541Z,100980.59
2023-04-10T00:44:08.457Z,100974.69
2023-04-10T00:46:39.034Z,100972.03
2023-04-10T00:49:07.413Z,100975.66
2023-04-10T00:51:35.458Z,100972.94
2023-04-10T00:54:03.646Z,100970.38
2023-04-10T00:56:32.925Z,100964.53
2023-04-10T00:59:04.127Z,100972.16
2023-04-10T01:01:33.312Z,100967.19
2023-04-10T01:04:01.551Z,100972.09
2023-04-10T01:06:43.293Z,100955.56
2023-04-10T01:09:16.899Z,100957.56
2023-04-10T01:11:52.534Z,100956.53
2023-04-10T01:14:31.987Z,100957.44
2023-04-10T01:17:05.716Z,100959.44
2023-04-10T01:20:01.020Z,100946.44
2023-04-10T01:22:35.777Z,100943.59
2023-04-10T01:25:20.587Z,100947.03
2023-04-10T01:28:01.822Z,100950.56
2023-04-10T01:30:33.474Z,100954.00
2023-04-10T01:33:03.810Z,100949.66
2023-04-10T01:35:33.363Z,100951.47
2023-04-10T01:38:06.793Z,100942.81
2023-04-10T01:40:39.888Z,100951.59
2023-04-10T01:43:11.547Z,100954.19
2023-04-10T01:45:43.551Z,100949.28
2023-04-10T01:48:11.920Z,100955.34
2023-04-10T01:50:42.082Z,100943.97
2023-04-10T01:53:10.706Z,100953.09
2023-04-10T01:55:39.401Z,100957.16
2023-04-10T01:58:07.986Z,100950.19
2023-04-10T02:00:41.833Z,100935.31
2023-04-10T02:03:10.181Z,100953.03
2023-04-10T02:05:47.416Z,100962.47
2023-04-10T02:08:19.282Z,100954.91
2023-04-10T02:10:55.722Z,100958.31
2023-04-10T02:13:26.733Z,100957.44
2023-04-10T02:16:03.471Z,100946.41
2023-04-10T02:18:34.942Z,100953.22
2023-04-10T02:21:03.815Z,100951.69
2023-04-10T02:23:31.784Z,100951.97
2023-04-10T02:25:59.680Z,100951.69
2023-04-10T02:28:27.628Z,100948.16
2023-04-10T02:30:56.931Z,100943.09
2023-04-10T02:33:24.868Z,100942.03
2023-04-10T02:35:52.820Z,100938.22
2023-04-10T02:38:20.756Z,100930.91
2023-04-10T02:40:50.363Z,100942.19
2023-04-10T02:43:18.902Z,100939.66
2023-04-10T02:45:46.806Z,100934.44
2023-04-10T02:48:16.390Z,100944.78
2023-04-10T02:50:46.684Z,100935.38
2023-04-10T02:53:15.410Z,100935.16
2023-04-10T02:55:43.456Z,100935.81
2023-04-10T02:58:13.181Z,100931.44
2023-04-10T03:00:42.809Z,100936.63
2023-04-10T03:03:11.254Z,100940.44
2023-04-10T03:05:40.646Z,100939.97
2023-04-10T03:08:08.537Z,100937.03
2023-04-10T03:10:36.444Z,100936.69
2023-04-10T03:13:04.429Z,100934.09
2023-04-10T03:15:33.991Z,100935.91
2023-04-10T03:18:02.276Z,100935.56
2023-04-10T03:20:30.212Z,100934.78
2023-04-10T03:22:59.508Z,100943.75
2023-04-10T03:25:27.462Z,100943.75
2023-04-10T03:27:55.595Z,100948.34
2023-04-10T03:30:23.522Z,100948.47
2023-04-10T03:32:51.400Z,100939.31
2023-04-10T03:35:19.573Z,100952.25
2023-04-10T03:37:47.547Z,100952.38
2023-04-10T03:40:16.895Z,100945.78
2023-04-10T03:42:44.842Z,100949.78
2023-04-10T03:45:13.854Z,100955.94
2023-04-10T03:47:41.768Z,100959.44
2023-04-10T03:50:10.632Z,100958.44
2023-04-10T03:52:38.590Z,100965.53
2023-04-10T03:55:07.446Z,100962.47
2023-04-10T03:57:36.753Z,100961.59
2023-04-10T04:00:05.840Z,100957.31
2023-04-10T04:02:33.925Z,100963.00
2023-04-10T04:05:01.992Z,100959.50
2023-04-10T04:07:29.978Z,100967.25
2023-04-10T04:09:58.155Z,100969.78
2023-04-10T04:12:26.065Z,100964.78
2023-04-10T04:14:55.412Z,100964.63
2023-04-10T04:17:23.394Z,100963.38
2023-04-10T04:19:51.341Z,100956.59
2023-04-10T04:22:19.419Z,100960.59
2023-04-10T04:24:47.362Z,100965.53
2023-04-10T04:27:15.485Z,100967.59
2023-04-10T04:29:43.432Z,100967.13
2023-04-10T04:32:12.886Z,100961.63
2023-04-10T04:34:40.911Z,100967.31
2023-04-10T04:37:08.901Z,100967.13
2023-04-10T04:39:37.006Z,100960.91
2023-04-10T04:42:05.109Z,100969.19
2023-04-10T04:44:33.046Z,100964.91
2023-04-10T04:47:00.951Z,100971.16
2023-04-10T04:49:30.342Z,100971.75
2023-04-10T04:51:58.264Z,100972.56
2023-04-10T04:54:26.164Z,100976.78
2023-04-10T04:56:54.056Z,100952.88
2023-04-10T04:59:21.960Z,100972.56
2023-04-10T05:01:50.046Z,100963.25
2023-04-10T05:04:18.259Z,100976.16
2023-04-10T05:06:47.739Z,100965.00
2023-04-10T05:09:15.683Z,100972.44
2023-04-10T05:11:43.619Z,100970.38
2023-04-10T05:14:11.576Z,100967.56
2023-04-10T05:16:39.475Z,100965.38
2023-04-10T05:19:07.369Z,100965.25
2023-04-10T05:21:37.567Z,100976.25
2023-04-10T05:24:07.138Z,100977.47
2023-04-10T05:26:35.037Z,100980.53
2023-04-10T05:29:02.965Z,100987.50
2023-04-10T05:31:30.916Z,100980.75
2023-04-10T05:33:59.221Z,100969.78
2023-04-10T05:36:27.684Z,100985.59
2023-04-10T05:38:56.189Z,100978.91
2023-04-10T05:41:25.810Z,100982.41
2023-04-10T05:43:53.730Z,100991.22
2023-04-10T05:46:21.678Z,100989.44
2023-04-10T05:48:50.052Z,100976.53
2023-04-10T05:51:18.005Z,100978.47
2023-04-10T05:53:45.948Z,100988.03
2023-04-10T05:56:14.174Z,100982.06
2023-04-10T05:58:43.525Z,100990.56
2023-04-10T06:01:11.559Z,100993.00
2023-04-10T06:03:39.680Z,100996.56
2023-04-10T06:06:09.187Z,101006.94
2023-04-10T06:08:37.085Z,100990.97
2023-04-10T06:11:05.175Z,100990.16
2023-04-10T06:13:33.566Z,100999.34
2023-04-10T06:16:02.958Z,100970.75
2023-04-10T06:18:30.884Z,100999.72
2023-04-10T06:21:01.952Z,101002.03
2023-04-10T06:23:29.918Z,100996.56
2023-04-10T06:25:57.921Z,101001.75
2023-04-10T06:28:25.898Z,100973.38
2023-04-10T06:30:53.899Z,100996.31
2023-04-10T06:33:24.869Z,101002.69
2023-04-10T06:35:54.292Z,101005.91
2023-04-10T06:38:22.375Z,101000.28
2023-04-10T06:40:50.660Z,101005.47
2023-04-10T06:43:18.589Z,101005.06
2023-04-10T06:45:46.732Z,101001.50
2023-04-10T06:48:15.153Z,100995.91
2023-04-10T06:50:44.513Z,100995.59
2023-04-10T06:53:12.410Z,100998.38
2023-04-10T06:55:40.408Z,100999.19
2023-04-10T06:58:08.389Z,100997.84
2023-04-10T07:00:36.294Z,101002.47
2023-04-10T07:03:04.301Z,101009.63
2023-04-10T07:05:32.259Z,101005.75
2023-04-10T07:08:01.596Z,101001.38
2023-04-10T07:10:29.514Z,101003.34
2023-04-10T07:12:58.950Z,101005.69
2023-04-10T07:15:26.907Z,101006.91
2023-04-10T07:17:56.402Z,101006.47
2023-04-10T07:20:24.429Z,101004.78
2023-04-10T07:22:52.360Z,101006.53
2023-04-10T07:25:21.983Z,101010.78
2023-04-10T07:27:49.939Z,101013.56
2023-04-10T07:30:17.884Z,101000.91
2023-04-10T07:32:46.874Z,101000.53
2023-04-10T07:35:15.036Z,100991.50
2023-04-10T07:37:44.163Z,100994.66
2023-04-10T07:40:12.593Z,100982.63
2023-04-10T07:42:41.950Z,100987.28
2023-04-10T07:45:11.106Z,100983.84
2023-04-10T07:47:39.107Z,100991.19
2023-04-10T07:50:08.960Z,100982.06
2023-04-10T07:52:36.933Z,100981.59
2023-04-10T07:55:05.148Z,100976.25
2023-04-10T07:57:33.275Z,100979.16
2023-04-10T08:00:02.762Z,100978.25
2023-04-10T08:02:30.882Z,100977.72
2023-04-10T08:04:59.065Z,100977.88
2023-04-10T08:07:27.045Z,100969.50
2023-04-10T08:09:55.038Z,100957.91
2023-04-10T08:12:22.922Z,100974.75
2023-04-10T08:14:51.727Z,100972.47
2023-04-10T08:17:21.251Z,100979.69
2023-04-10T08:19:49.171Z,100974.13
2023-04-10T08:22:17.275Z,100961.97
2023-04-10T08:24:45.206Z,100978.34
2023-04-10T08:27:13.946Z,100965.53
2023-04-10T08:29:41.874Z,100971.19
2023-04-10T08:32:10.031Z,100970.34
2023-04-10T08:34:39.339Z,100965.09
2023-04-10T08:37:09.162Z,100969.88
2023-04-10T08:39:38.471Z,100944.78
2023-04-10T08:42:08.146Z,100960.13
2023-04-10T08:44:37.223Z,100952.63
2023-04-10T08:47:06.619Z,100944.28
2023-04-10T08:49:42.518Z,100940.25
2023-04-10T08:52:15.701Z,100938.59
2023-04-10T08:54:48.112Z,100929.44
2023-04-10T08:57:20.610Z,100934.50
2023-04-10T08:59:49.201Z,100929.72
2023-04-10T09:02:17.424Z,100929.22
2023-04-10T09:04:50.679Z,100925.03
2023-04-10T09:07:19.260Z,100912.63
2023-04-10T09:09:47.263Z,100909.41
2023-04-10T09:12:15.710Z,100909.41
2023-04-10T09:14:44.643Z,100895.53
2023-04-10T09:17:20.460Z,100902.16
2023-04-10T09:19:52.814Z,100896.72
2023-04-10T09:22:32.217Z,100885.38
2023-04-10T09:25:01.109Z,100892.75
2023-04-10T09:27:31.341Z,100882.41
2023-04-10T09:30:00.178Z,100876.69
2023-04-10T09:32:40.203Z,100866.47
2023-04-10T09:35:11.109Z,100868.22
2023-04-10T09:37:40.583Z,100863.06
2023-04-10T09:40:21.396Z,100864.13
2023-04-10T09:42:49.440Z,100859.09
2023-04-10T09:45:20.161Z,100858.13
2023-04-10T09:48:02.884Z,100842.50
2023-04-10T09:50:39.948Z,100831.25
2023-04-10T09:53:08.873Z,100843.22
2023-04-10T09:55:37.747Z,100846.66
2023-04-10T09:58:06.513Z,100838.78
2023-04-10T10:00:40.216Z,100838.56
2023-04-10T10:03:12.065Z,100836.81
2023-04-10T10:05:43.448Z,100813.38
2023-04-10T10:08:12.873Z,100819.03
2023-04-10T10:10:47.068Z,100829.41
2023-04-10T10:13:19.236Z,100814.66
2023-04-10T10:15:53.246Z,100820.44
2023-04-10T10:18:28.506Z,100816.53
2023-04-10T10:20:58.584Z,100806.28
2023-04-10T10:23:28.160Z,100815.81
2023-04-10T10:25:57.466Z,100817.13
2023-04-10T10:28:27.226Z,100799.19
2023-04-10T10:30:56.560Z,100803.59
2023-04-10T10:33:26.344Z,100798.72
2023-04-10T10:35:54.721Z,100784.09
2023-04-10T10:38:24.124Z,100785.94
2023-04-10T10:40:59.060Z,100779.84
2023-04-10T10:43:37.206Z,100774.25
2023-04-10T10:46:08.366Z,100789.06
2023-04-10T10:48:36.682Z,100775.25
2023-04-10T10:51:05.094Z,100780.81
2023-04-10T10:53:36.304Z,100775.16
2023-04-10T10:56:35.783Z,100776.16
2023-04-10T10:59:03.957Z,100775.34
2023-04-10T11:01:31.996Z,100771.88
2023-04-10T11:04:01.418Z,100768.31
2023-04-10T11:06:52.222Z,100769.28
2023-04-10T11:09:51.347Z,100763.13
2023-04-10T11:12:21.549Z,100767.41
2023-04-10T11:14:59.521Z,100749.84
2023-04-10T11:17:51.510Z,100755.28
2023-04-10T11:20:22.003Z,100761.72
2023-04-10T11:23:10.902Z,100751.06
2023-04-10T11:25:51.487Z,100731.59
2023-04-10T11:28:39.304Z,100742.47
2023-04-10T11:31:22.335Z,100726.09
2023-04-10T11:34:01.515Z,100718.34
2023-04-10T11:36:29.947Z,100735.09
2023-04-10T11:38:59.100Z,100749.34
2023-04-10T11:41:33.396Z,100732.69
2023-04-10T11:44:02.656Z,100708.63
2023-04-10T11:46:31.406Z,100732.16
2023-04-10T11:49:04.474Z,100727.88
2023-04-10T11:51:33.221Z,100723.91
2023-04-10T11:54:09.043Z,100717.91
2023-04-10T11:56:40.060Z,100652.13
2023-04-10T11:59:10.957Z,100665.66
2023-04-10T12:01:42.774Z,100707.38
2023-04-10T12:04:16.276Z,100702.34
2023-04-10T12:06:46.183Z,100689.72
2023-04-10T12:09:15.855Z,100685.13
2023-04-10T12:11:53.235Z,100684.75
2023-04-10T12:14:22.235Z,100675.00
2023-04-10T12:16:50.599Z,100680.00
2023-04-10T12:19:19.202Z,100676.69
2023-04-10T12:21:47.594Z,100684.22
2023-04-10T12:24:42.267Z,100666.44
2023-04-10T12:27:17.580Z,100660.53
2023-04-10T12:29:45.891Z,100663.50
2023-04-10T12:32:14.332Z,100658.78
2023-04-10T12:34:42.829Z,100639.19
2023-04-10T12:37:11.230Z,100649.69
2023-04-10T12:39:39.163Z,100629.59
2023-04-10T12:42:16.222Z,100649.44
2023-04-10T12:44:54.831Z,100642.22
2023-04-10T12:47:23.638Z,100629.78
2023-04-10T12:50:05.139Z,100637.69
2023-04-10T12:52:33.360Z,100635.59
2023-04-10T12:55:12.004Z,100639.75
2023-04-10T12:57:42.445Z,100637.25
2023-04-10T13:00:12.811Z,100623.06
2023-04-10T13:02:41.525Z,100598.25
2023-04-10T13:05:11.176Z,100626.53
2023-04-10T13:07:40.039Z,100626.03
2023-04-10T13:10:09.242Z,100612.63
2023-04-10T13:12:38.656Z,100615.06
2023-04-10T13:15:09.199Z,100583.13
2023-04-10T13:17:37.357Z,100601.88
2023-04-10T13:20:06.460Z,100614.78
2023-04-10T13:22:34.396Z,100611.44
2023-04-10T13:25:03.790Z,100600.16
2023-04-10T13:27:31.835Z,100583.84
2023-04-10T13:29:59.902Z,100614.34
2023-04-10T13:32:29.176Z,100605.88
2023-04-10T13:34:57.395Z,100593.03
2023-04-10T13:37:26.739Z,100570.63
2023-04-10T13:39:54.927Z,100579.88
2023-04-10T13:42:22.987Z,100601.53
2023-04-10T13:44:50.974Z,100575.09
2023-04-10T13:47:18.886Z,100592.88
2023-04-10T13:49:48.622Z,100601.22
2023-04-10T13:52:16.955Z,100577.50
2023-04-10T13:54:44.985Z,100555.50
2023-04-10T13:57:12.929Z,100525.34
2023-04-10T13:59:41.323Z,100583.81
2023-04-10T14:02:10.114Z,100571.31
2023-04-10T14:04:38.198Z,100589.13
2023-04-10T14:07:07.671Z,100594.69
2023-04-10T14:09:35.662Z,100575.72
2023-04-10T14:12:04.224Z,100588.25
2023-04-10T14:14:32.196Z,100578.66
2023-04-10T14:17:00.811Z,100589.22
2023-04-10T14:19:28.818Z,100581.56
2023-04-10T14:21:56.862Z,100539.34
2023-04-10T14:24:26.403Z,100584.84
2023-04-10T14:26:58.332Z,100581.63
2023-04-10T14:29:37.396Z,100574.06
2023-04-10T14:32:07.526Z,100565.91
2023-04-10T14:34:35.772Z,100573.00
2023-04-10T14:37:04.018Z,100524.28
2023-04-10T14:39:33.984Z,100577.75
2023-04-10T14:42:03.383Z,100572.06
2023-04-10T14:44:32.075Z,100525.72
2023-04-10T14:47:00.249Z,100583.19
2023-04-10T14:49:28.552Z,100564.03
2023-04-10T14:51:56.543Z,100555.44
2023-04-10T14:54:24.452Z,100575.97
2023-04-10T14:56:54.341Z,100574.91
2023-04-10T14:59:22.349Z,100566.56
2023-04-10T15:01:50.380Z,100565.94
2023-04-10T15:04:18.722Z,100571.50
2023-04-10T15:06:47.043Z,100566.06
2023-04-10T15:09:15.237Z,100566.69
2023-04-10T15:11:43.605Z,100558.91
2023-04-10T15:14:13.127Z,100568.53
2023-04-10T15:16:41.975Z,100569.44
2023-04-10T15:19:09.914Z,100561.38
2023-04-10T15:21:38.034Z,100560.53
2023-04-10T15:24:06.296Z,100563.06
2023-04-10T15:26:35.066Z,100544.75
2023-04-10T15:29:03.581Z,100550.34
2023-04-10T15:31:33.218Z,100544.84
2023-04-10T15:34:01.206Z,100540.34
2023-04-10T15:36:29.986Z,100556.78
2023-04-10T15:38:58.845Z,100552.25
2023-04-10T15:41:27.821Z,100550.38
2023-04-10T15:43:55.851Z,100544.47
2023-04-10T15:46:24.054Z,100546.13
2023-04-10T15:48:53.422Z,100540.28
2023-04-10T15:51:22.068Z,100542.31
2023-04-10T15:53:50.042Z,100538.03
2023-04-10T15:56:18.445Z,100532.25
2023-04-10T15:58:46.505Z,100534.84
2023-04-10T16:01:14.762Z,100528.66
2023-04-10T16:03:42.894Z,100528.78
2023-04-10T16:06:12.446Z,100522.47
2023-04-10T16:08:40.469Z,100529.50
2023-04-10T16:11:08.505Z,100527.94
2023-04-10T16:13:38.658Z,100528.78
2023-04-10T16:16:09.292Z,100512.38
2023-04-10T16:18:37.285Z,100519.47
2023-04-10T16:21:09.488Z,100518.91
2023-04-10T16:23:38.774Z,100522.69
2023-04-10T16:26:07.027Z,100528.03
2023-04-10T16:28:35.029Z,100506.19
2023-04-10T16:31:03.087Z,100528.16
2023-04-10T16:33:31.527Z,100522.81
2023-04-10T16:35:59.557Z,100521.84
2023-04-10T16:38:27.523Z,100490.53
2023-04-10T16:40:56.795Z,100520.53
2023-04-10T16:43:24.868Z,100522.13
2023-04-10T16:45:56.585Z,100520.69
2023-04-10T16:48:24.707Z,100508.91
2023-04-10T16:50:53.237Z,100523.03
2023-04-10T16:53:21.473Z,100501.91
2023-04-10T16:56:02.096Z,100508.22
2023-04-10T16:58:31.689Z,100522.03
2023-04-10T17:01:00.090Z,100537.09
2023-04-10T17:03:28.371Z,100520.47
2023-04-10T17:05:56.729Z,100528.81
2023-04-10T17:08:24.709Z,100538.31
2023-04-10T17:10:52.869Z,100518.53
2023-04-10T17:13:22.741Z,100511.19
2023-04-10T17:15:51.097Z,100548.84
2023-04-10T17:18:20.131Z,100534.91
2023-04-10T17:20:48.517Z,100535.84
2023-04-10T17:23:16.536Z,100547.00
2023-04-10T17:25:45.048Z,100551.50
2023-04-10T17:28:13.269Z,100545.81
2023-04-10T17:30:44.115Z,100551.16
2023-04-10T17:33:12.254Z,100548.50
2023-04-10T17:35:40.338Z,100547.44
2023-04-10T17:38:08.440Z,100550.78
2023-04-10T17:40:36.389Z,100528.41
2023-04-10T17:43:04.451Z,100556.69
2023-04-10T17:45:32.460Z,100544.66
2023-04-10T17:48:02.152Z,100554.16
2023-04-10T17:50:30.537Z,100546.16
2023-04-10T17:52:58.732Z,100540.22
2023-04-10T17:55:27.049Z,100535.16
2023-04-10T17:57:55.438Z,100552.16
2023-04-10T18:00:23.966Z,100534.91
2023-04-10T18:02:57.948Z,100548.31
2023-04-10T18:05:27.903Z,100537.50
2023-04-10T18:07:55.906Z,100553.38
2023-04-10T18:10:24.467Z,100550.47
2023-04-10T18:12:52.984Z,100552.16
2023-04-10T18:15:20.971Z,100547.59
2023-04-10T18:17:48.937Z,100555.75
2023-04-10T18:20:18.757Z,100561.41
2023-04-10T18:22:48.379Z,100568.50
2023-04-10T18:25:16.575Z,100572.69
2023-04-10T18:27:51.535Z,100574.16
2023-04-10T18:30:23.618Z,100551.69
2023-04-10T18:32:52.129Z,100539.78
2023-04-10T18:35:20.440Z,100573.56
2023-04-10T18:37:49.758Z,100576.16
2023-04-10T18:40:17.857Z,100574.19
2023-04-10T18:42:46.082Z,100556.44
2023-04-10T18:45:14.557Z,100572.91
2023-04-10T18:47:42.901Z,100578.66
2023-04-10T18:50:11.743Z,100574.44
2023-04-10T18:52:39.740Z,100569.88
2023-04-10T18:55:09.834Z,100574.66
2023-04-10T18:57:37.763Z,100575.50
2023-04-10T19:00:08.249Z,100573.34
2023-04-10T19:02:36.451Z,100571.34
2023-04-10T19:05:04.672Z,100544.03
2023-04-10T19:07:33.424Z,100572.59
2023-04-10T19:10:01.543Z,100564.69
2023-04-10T19:12:30.857Z,100570.09
2023-04-10T19:14:58.818Z,100562.63
2023-04-10T19:17:26.787Z,100562.72
2023-04-10T19:19:55.576Z,100564.47
2023-04-10T19:22:23.530Z,100563.75
2023-04-10T19:24:51.530Z,100557.69
2023-04-10T19:27:20.053Z,100557.69
2023-04-10T19:29:49.422Z,100555.38
2023-04-10T19:32:17.451Z,100560.94
2023-04-10T19:34:51.118Z,100559.56
2023-04-10T19:37:20.765Z,100547.91
2023-04-10T19:39:48.943Z,100560.41
2023-04-10T19:42:16.869Z,100547.06
2023-04-10T19:44:44.859Z,100554.25
2023-04-10T19:47:14.636Z,100567.69
2023-04-10T19:49:42.550Z,100567.09
2023-04-10T19:52:10.702Z,100567.47
2023-04-10T19:54:38.682Z,100565.19
2023-04-10T19:57:06.600Z,100566.22
2023-04-10T19:59:36.461Z,100568.09
2023-04-10T20:02:04.537Z,100574.03
2023-04-10T20:04:34.089Z,100563.53
2023-04-10T20:07:02.175Z,100561.84
2023-04-10T20:09:30.312Z,100564.34
2023-04-10T20:11:58.456Z,100559.53
2023-04-10T20:14:26.559Z,100558.84
2023-04-10T20:16:54.672Z,100552.13
2023-04-10T20:19:22.918Z,100546.38
2023-04-10T20:21:52.276Z,100542.94
2023-04-10T20:24:20.267Z,100538.69
2023-04-10T20:26:48.336Z,100542.22
2023-04-10T20:29:16.345Z,100537.94
2023-04-10T20:31:44.302Z,100523.03
2023-04-10T20:34:12.289Z,100533.78
2023-04-10T20:36:40.217Z,100539.72
2023-04-10T20:39:09.607Z,100534.59
2023-04-10T20:41:37.531Z,100537.72
2023-04-10T20:44:06.604Z,100534.31
2023-04-10T20:46:34.806Z,100536.78
2023-04-10T20:49:02.773Z,100541.38
2023-04-10T20:51:31.561Z,100533.47
2023-04-10T20:53:59.452Z,100537.84
2023-04-10T20:56:36.742Z,100534.41
2023-04-10T20:59:11.265Z,100527.78
2023-04-10T21:01:39.390Z,100536.03
2023-04-10T21:04:07.487Z,100532.41
2023-04-10T21:06:35.689Z,100519.88
2023-04-10T21:09:03.635Z,100536.25
2023-04-10T21:11:32.950Z,100517.59
2023-04-10T21:14:00.941Z,100525.81
2023-04-10T21:16:31.007Z,100523.84
2023-04-10T21:18:58.946Z,100525.31
2023-04-10T21:21:27.513Z,100522.16
2023-04-10T21:23:55.649Z,100524.47
2023-04-10T21:26:23.556Z,100514.06
2023-04-10T21:28:53.217Z,100518.84
2023-04-10T21:31:21.414Z,100521.56
2023-04-10T21:33:49.409Z,100516.53
2023-04-10T21:36:17.805Z,100512.16
2023-04-10T21:38:45.707Z,100507.09
2023-04-10T21:41:13.660Z,100505.38
2023-04-10T21:43:43.205Z,100496.56
2023-04-10T21:46:12.677Z,100495.63
2023-04-10T21:48:41.570Z,100492.91
2023-04-10T21:51:09.666Z,100489.59
2023-04-10T21:53:37.559Z,100482.75
2023-04-10T21:56:05.942Z,100486.47
2023-04-10T21:58:33.890Z,100479.50
2023-04-10T22:01:01.946Z,100482.19
2023-04-10T22:03:31.548Z,100477.94
2023-04-10T22:05:59.531Z,100474.19
2023-04-10T22:08:27.582Z,100476.91
2023-04-10T22:10:55.981Z,100472.91
2023-04-10T22:13:30.776Z,100476.19
2023-04-10T22:15:59.367Z,100477.66
2023-04-10T22:18:27.380Z,100483.00
2023-04-10T22:20:56.952Z,100458.72
2023-04-10T22:23:24.998Z,100478.31
2023-04-10T22:25:52.976Z,100481.72
2023-04-10T22:28:21.088Z,100478.31
2023-04-10T22:30:49.110Z,100471.34
2023-04-10T22:33:17.043Z,100465.16
2023-04-10T22:35:44.984Z,100466.53
2023-04-10T22:38:14.340Z,100465.72
2023-04-10T22:40:42.234Z,100453.03
2023-04-10T22:43:10.968Z,100457.41
2023-04-10T22:45:38.944Z,100460.28
2023-04-10T22:48:06.931Z,100449.88
2023-04-10T22:50:34.931Z,100452.44
2023-04-10T22:53:02.923Z,100446.25
2023-04-10T22:55:32.311Z,100436.69
2023-04-10T22:58:00.208Z,100430.38
2023-04-10T23:00:28.334Z,100434.47
2023-04-10T23:02:56.282Z,100426.69
2023-04-10T23:05:25.486Z,100420.41
2023-04-10T23:07:53.406Z,100419.81
2023-04-10T23:10:22.787Z,100417.97
2023-04-10T23:12:52.070Z,100426.31
2023-04-10T23:15:20.144Z,100411.69
2023-04-10T23:17:48.130Z,100405.53
2023-04-10T23:20:16.163Z,100415.28
2023-04-10T23:22:44.056Z,100413.31
2023-04-10T23:25:11.932Z,100421.19
2023-04-10T23:27:40.119Z,100412.22
2023-04-10T23:30:10.191Z,100411.28
2023-04-10T23:32:38.209Z,100408.78
2023-04-10T23:35:06.839Z,100409.88
2023-04-10T23:37:35.340Z,100406.56
2023-04-10T23:40:04.112Z,100399.63
2023-04-10T23:42:32.032Z,100383.66
2023-04-10T23:44:59.937Z,100380.78
2023-04-10T23:47:29.246Z,100404.25
2023-04-10T23:49:57.162Z,100388.47
2023-04-10T23:52:25.086Z,100389.50
2023-04-10T23:54:53.059Z,100393.19
2023-04-10T23:57:20.945Z,100388.47
2023-04-10T23:59:48.881Z,100389.38
